Time;durP1;ratioP1;P1;durP2;ratioP2;P2;SDS_P1;SDS_P2;PMS_P1;PMS_P2;Temp;Humidity;BMP_temperature;BMP_pressure;BME280_temperature;BME280_humidity;BME280_pressure;Samples;Min_cycle;Max_cycle;Signal;HPM_P1;HPM_P2
2023/01/07 00:00:42;;;;;;;;;;;;;;;9.48;47.75;100452.94;5093432;28;20320;-44
2023/01/07 00:03:10;;;;;;;;;;;;;;;9.22;48.13;100451.50;5093237;28;19916;-43
2023/01/07 00:05:35;;;;;;;;;;;;;;;9.37;48.17;100456.88;5093169;28;19919;-44
2023/01/07 00:08:00;;;;;;;;;;;;;;;9.33;47.95;100444.97;5093153;28;19916;-44
2023/01/07 00:10:25;;;;;;;;;;;;;;;9.09;47.77;100452.09;5093022;28;19923;-43
2023/01/07 00:12:51;;;;;;;;;;;;;;;8.90;48.92;100445.41;5093113;28;20285;-44
2023/01/07 00:15:16;;;;;;;;;;;;;;;8.92;48.44;100448.72;5092336;28;19912;-45
2023/01/07 00:17:41;;;;;;;;;;;;;;;9.04;48.76;100454.44;5092828;28;19982;-43
2023/01/07 00:20:06;;;;;;;;;;;;;;;8.93;48.49;100460.16;5098249;28;19923;-44
2023/01/07 00:22:32;;;;;;;;;;;;;;;9.56;47.30;100461.69;5113120;28;20383;-43
2023/01/07 00:24:57;;;;;;;;;;;;;;;9.38;47.40;100472.63;5100312;28;19912;-43
2023/01/07 00:27:24;;;;;;;;;;;;;;;8.91;48.95;100467.47;5092671;28;19987;-43
2023/01/07 00:29:49;;;;;;;;;;;;;;;8.97;49.07;100472.91;5092759;28;20058;-44
2023/01/07 00:32:14;;;;;;;;;;;;;;;9.16;48.54;100470.81;5092568;28;20003;-45
2023/01/07 00:34:40;;;;;;;;;;;;;;;9.02;48.72;100468.91;5092241;28;19912;-43
2023/01/07 00:39:49;;;;;;;;;;;;;;;8.63;49.45;100475.91;5092567;28;19935;-43
2023/01/07 00:44:58;;;;;;;;;;;;;;;8.25;50.93;100478.34;5092389;28;20366;-43
2023/01/07 00:47:23;;;;;;;;;;;;;;;8.37;50.60;100486.75;5092301;28;20003;-43
2023/01/07 00:49:49;;;;;;;;;;;;;;;8.30;50.55;100489.28;5092428;28;20005;-43
2023/01/07 00:52:14;;;;;;;;;;;;;;;8.45;50.85;100486.75;5092367;28;19916;-43
2023/01/07 00:54:39;;;;;;;;;;;;;;;8.23;51.33;100485.63;5092011;28;19912;-43
2023/01/07 00:57:04;;;;;;;;;;;;;;;8.26;51.04;100485.28;5092065;28;19958;-43
2023/01/07 00:59:30;;;;;;;;;;;;;;;8.47;50.26;100487.41;5092277;28;19920;-43
2023/01/07 01:01:55;;;;;;;;;;;;;;;8.44;50.30;100485.09;5092175;28;20260;-43
2023/01/07 01:04:20;;;;;;;;;;;;;;;8.16;51.02;100489.97;5091739;28;19977;-43
2023/01/07 01:06:46;;;;;;;;;;;;;;;8.07;51.37;100483.84;5090357;28;19912;-43
2023/01/07 01:09:12;;;;;;;;;;;;;;;7.97;52.19;100483.19;5091910;28;19908;-44
2023/01/07 01:11:37;;;;;;;;;;;;;;;8.15;51.02;100483.84;5092049;28;19912;-43
2023/01/07 01:14:02;;;;;;;;;;;;;;;8.25;50.50;100482.81;5090249;28;19912;-43
2023/01/07 01:16:28;;;;;;;;;;;;;;;7.97;50.86;100483.19;5091181;28;19969;-43
2023/01/07 01:18:53;;;;;;;;;;;;;;;7.69;52.27;100483.56;5090341;28;19924;-43
2023/01/07 01:21:18;;;;;;;;;;;;;;;7.72;51.97;100482.41;5105596;28;19912;-43
2023/01/07 01:23:44;;;;;;;;;;;;;;;7.87;51.57;100480.72;5110988;28;19922;-43
2023/01/07 01:26:11;;;;;;;;;;;;;;;7.69;52.29;100486.22;5111252;28;20002;-42
2023/01/07 01:28:36;;;;;;;;;;;;;;;7.60;52.50;100473.97;5111567;28;19942;-43
2023/01/07 01:31:01;;;;;;;;;;;;;;;7.88;51.88;100481.56;5112092;28;20368;-43
2023/01/07 01:33:27;;;;;;;;;;;;;;;7.74;52.63;100475.13;5111763;27;20434;-43
2023/01/07 01:35:52;;;;;;;;;;;;;;;7.68;53.31;100481.91;5111451;28;19912;-43
2023/01/07 01:38:17;;;;;;;;;;;;;;;7.14;54.00;100477.09;5111545;28;20316;-43
2023/01/07 01:40:43;;;;;;;;;;;;;;;7.16;54.03;100477.75;5111746;28;19968;-43
2023/01/07 01:43:26;;;;;;;;;;;;;;;7.47;52.79;100468.34;5111911;28;19916;-42
2023/01/07 01:45:52;;;;;;;;;;;;;;;7.46;53.06;100462.19;5111622;28;19951;-43
2023/01/07 01:48:19;;;;;;;;;;;;;;;7.46;52.97;100461.38;5111441;28;19912;-42
2023/01/07 01:50:46;;;;;;;;;;;;;;;7.09;53.66;100463.50;5111174;28;20370;-44
2023/01/07 01:53:14;;;;;;;;;;;;;;;7.15;54.05;100468.13;5111542;28;19960;-42
2023/01/07 01:55:42;;;;;;;;;;;;;;;7.15;53.75;100464.69;5111396;28;19939;-42
2023/01/07 01:58:12;;;;;;;;;;;;;;;6.99;54.77;100470.78;5111474;28;19947;-43
2023/01/07 02:00:37;;;;;;;;;;;;;;;7.12;54.35;100465.84;5111266;28;19919;-44
2023/01/07 02:03:05;;;;;;;;;;;;;;;6.97;54.72;100468.28;5111305;28;19916;-43
2023/01/07 02:05:32;;;;;;;;;;;;;;;6.96;54.63;100471.91;5111047;28;19916;-44
2023/01/07 02:07:58;;;;;;;;;;;;;;;6.90;55.32;100477.84;5111304;28;19912;-43
2023/01/07 02:10:24;;;;;;;;;;;;;;;7.08;54.79;100474.25;5111046;28;19911;-44
2023/01/07 02:12:52;;;;;;;;;;;;;;;6.95;54.75;100478.22;5111075;28;20275;-43
2023/01/07 02:15:23;;;;;;;;;;;;;;;6.87;55.15;100483.47;5111164;28;19967;-42
2023/01/07 02:17:55;;;;;;;;;;;;;;;6.93;54.93;100468.75;5111209;28;19928;-43
2023/01/07 02:20:25;;;;;;;;;;;;;;;6.80;55.06;100469.25;5107476;28;19991;-42
2023/01/07 02:23:09;;;;;;;;;;;;;;;7.05;54.77;100473.59;5110899;28;19916;-43
2023/01/07 02:25:40;;;;;;;;;;;;;;;7.00;55.62;100475.88;5115386;28;19919;-44
2023/01/07 02:28:21;;;;;;;;;;;;;;;6.71;56.26;100481.59;5118117;28;19943;-44
2023/01/07 02:31:04;;;;;;;;;;;;;;;6.75;55.39;100476.81;5118035;28;19912;-44
2023/01/07 02:33:30;;;;;;;;;;;;;;;6.40;56.12;100482.16;5117722;27;19927;-45
2023/01/07 02:36:05;;;;;;;;;;;;;;;6.46;56.13;100489.44;5117377;28;19912;-43
2023/01/07 02:38:30;;;;;;;;;;;;;;;6.42;56.37;100489.94;5117854;27;19962;-43
2023/01/07 02:41:04;;;;;;;;;;;;;;;6.13;57.23;100491.09;5116239;28;19951;-44
2023/01/07 02:43:36;;;;;;;;;;;;;;;6.28;57.07;100483.38;5117413;28;20393;-43
2023/01/07 02:46:09;;;;;;;;;;;;;;;6.23;57.23;100489.16;5117618;28;19912;-43
2023/01/07 02:48:35;;;;;;;;;;;;;;;6.43;56.98;100484.44;5116328;28;19968;-44
2023/01/07 02:51:00;;;;;;;;;;;;;;;6.42;56.46;100493.38;5117784;27;19969;-43
2023/01/07 02:53:25;;;;;;;;;;;;;;;6.47;56.78;100490.25;5117284;28;19919;-43
2023/01/07 02:55:57;;;;;;;;;;;;;;;6.22;56.52;100491.97;5117719;28;19973;-43
2023/01/07 02:58:22;;;;;;;;;;;;;;;6.25;57.21;100504.88;5117632;28;19998;-43
2023/01/07 03:01:06;;;;;;;;;;;;;;;6.10;56.81;100501.97;5117898;27;20011;-43
2023/01/07 03:03:34;;;;;;;;;;;;;;;6.20;57.16;100494.75;5117501;27;19920;-42
2023/01/07 03:06:16;;;;;;;;;;;;;;;5.99;57.39;100489.84;5117205;28;19911;-42
2023/01/07 03:08:52;;;;;;;;;;;;;;;6.23;56.55;100493.63;5117885;27;19920;-42
2023/01/07 03:11:18;;;;;;;;;;;;;;;6.18;57.09;100491.44;5117466;28;19912;-43
2023/01/07 03:13:46;;;;;;;;;;;;;;;6.35;56.39;100502.94;5117586;28;19912;-43
2023/01/07 03:16:17;;;;;;;;;;;;;;;6.20;56.39;100509.78;5116897;28;19912;-44
2023/01/07 03:18:46;;;;;;;;;;;;;;;5.56;58.40;100517.03;5117307;28;19932;-43
2023/01/07 03:21:13;;;;;;;;;;;;;;;5.49;58.99;100514.19;5113487;28;19997;-42
2023/01/07 03:23:42;;;;;;;;;;;;;;;5.34;59.13;100502.50;5117961;28;20005;-42
2023/01/07 03:26:09;;;;;;;;;;;;;;;5.33;59.30;100499.03;5117430;27;19931;-42
2023/01/07 03:28:39;;;;;;;;;;;;;;;5.21;59.86;100502.88;5117861;28;19977;-42
2023/01/07 03:31:06;;;;;;;;;;;;;;;5.34;60.33;100494.59;5117886;28;20033;-42
2023/01/07 03:33:39;;;;;;;;;;;;;;;5.35;59.37;100498.88;5118106;28;19911;-42
2023/01/07 03:36:06;;;;;;;;;;;;;;;5.33;59.92;100498.19;5114813;28;20000;-42
2023/01/07 03:38:32;;;;;;;;;;;;;;;5.16;60.59;100505.97;5114782;28;20014;-42
2023/01/07 03:40:58;;;;;;;;;;;;;;;5.15;60.61;100514.03;5114388;28;20056;-43
2023/01/07 03:43:23;;;;;;;;;;;;;;;4.81;62.03;100504.91;5114727;28;20012;-43
2023/01/07 03:45:50;;;;;;;;;;;;;;;4.62;62.51;100515.56;5114340;28;19912;-43
2023/01/07 03:48:15;;;;;;;;;;;;;;;4.66;63.39;100512.50;5114365;28;19916;-42
2023/01/07 03:50:40;;;;;;;;;;;;;;;4.70;62.19;100507.75;5114802;28;20042;-43
2023/01/07 03:53:06;;;;;;;;;;;;;;;4.75;61.81;100508.16;5114627;28;19916;-42
2023/01/07 03:55:31;;;;;;;;;;;;;;;4.86;61.58;100507.13;5114121;28;19923;-42
2023/01/07 03:57:56;;;;;;;;;;;;;;;4.74;62.71;100506.50;5114405;28;19911;-43
2023/01/07 04:00:22;;;;;;;;;;;;;;;4.81;62.02;100501.47;5114376;28;20347;-43
2023/01/07 04:02:48;;;;;;;;;;;;;;;4.70;62.25;100505.97;5114247;28;19923;-43
2023/01/07 04:05:13;;;;;;;;;;;;;;;4.69;63.00;100514.00;5114095;28;19930;-43
2023/01/07 04:07:38;;;;;;;;;;;;;;;4.26;63.86;100515.44;5114362;28;19912;-43
2023/01/07 04:10:05;;;;;;;;;;;;;;;4.37;63.67;100514.44;5114118;28;19911;-42
2023/01/07 04:12:30;;;;;;;;;;;;;;;4.17;64.83;100522.41;5114125;28;19916;-42
2023/01/07 04:14:55;;;;;;;;;;;;;;;4.18;65.50;100520.59;5113916;28;20374;-42
2023/01/07 04:17:21;;;;;;;;;;;;;;;4.34;64.76;100520.84;5113853;28;19912;-42
2023/01/07 04:19:46;;;;;;;;;;;;;;;4.40;64.56;100519.41;5109654;28;19920;-42
2023/01/07 04:22:12;;;;;;;;;;;;;;;4.37;64.55;100517.88;5113816;28;19931;-42
2023/01/07 04:24:37;;;;;;;;;;;;;;;4.21;64.68;100526.41;5113622;28;19911;-42
2023/01/07 04:27:02;;;;;;;;;;;;;;;4.51;64.25;100532.41;5113850;28;19947;-42
2023/01/07 04:29:28;;;;;;;;;;;;;;;4.44;64.02;100533.97;5113556;28;19999;-41
2023/01/07 04:31:53;;;;;;;;;;;;;;;4.30;65.34;100541.38;5113744;28;19918;-42
2023/01/07 04:34:19;;;;;;;;;;;;;;;4.21;65.10;100538.75;5113756;28;19958;-42
2023/01/07 04:36:44;;;;;;;;;;;;;;;4.41;64.56;100537.72;5113922;28;20044;-42
2023/01/07 04:39:09;;;;;;;;;;;;;;;4.39;65.23;100542.28;5113607;28;19915;-42
2023/01/07 04:41:35;;;;;;;;;;;;;;;4.14;66.06;100543.75;5113521;28;19930;-42
2023/01/07 04:44:00;;;;;;;;;;;;;;;4.11;66.18;100542.25;5113049;28;20017;-42
2023/01/07 04:46:25;;;;;;;;;;;;;;;4.14;65.84;100548.19;5113719;28;19995;-42
2023/01/07 04:48:50;;;;;;;;;;;;;;;4.26;65.62;100542.59;5112223;28;20099;-42
2023/01/07 04:51:16;;;;;;;;;;;;;;;4.11;65.39;100541.38;5113112;28;19912;-42
2023/01/07 04:53:41;;;;;;;;;;;;;;;4.00;65.88;100544.19;5113319;28;19939;-42
2023/01/07 04:56:06;;;;;;;;;;;;;;;4.20;65.45;100556.34;5113387;28;19947;-42
2023/01/07 04:58:32;;;;;;;;;;;;;;;4.17;65.76;100556.66;5113123;28;19912;-42
2023/01/07 05:00:57;;;;;;;;;;;;;;;4.11;66.38;100551.94;5113141;28;19919;-42
2023/01/07 05:03:23;;;;;;;;;;;;;;;4.02;66.27;100552.81;5113199;28;19937;-43
2023/01/07 05:05:48;;;;;;;;;;;;;;;3.95;66.59;100549.06;5112923;28;20389;-42
2023/01/07 05:08:14;;;;;;;;;;;;;;;4.15;65.50;100555.97;5112866;28;19912;-42
2023/01/07 05:10:39;;;;;;;;;;;;;;;4.22;65.81;100566.75;5113315;28;19918;-43
2023/01/07 05:13:04;;;;;;;;;;;;;;;4.02;65.37;100561.53;5112721;28;19912;-41
2023/01/07 05:15:30;;;;;;;;;;;;;;;4.01;65.43;100559.84;5112715;28;20324;-43
2023/01/07 05:17:55;;;;;;;;;;;;;;;3.71;67.04;100566.09;5112824;28;19920;-43
2023/01/07 05:20:20;;;;;;;;;;;;;;;3.64;67.35;100560.59;5108838;28;19916;-42
2023/01/07 05:22:46;;;;;;;;;;;;;;;3.64;67.56;100565.84;5111764;28;20068;-42
2023/01/07 05:25:11;;;;;;;;;;;;;;;3.56;67.77;100557.81;5112533;28;19947;-43
2023/01/07 05:27:36;;;;;;;;;;;;;;;3.65;66.85;100561.41;5112451;28;19996;-42
2023/01/07 05:30:02;;;;;;;;;;;;;;;3.85;65.94;100559.59;5112711;28;20254;-42
2023/01/07 05:32:27;;;;;;;;;;;;;;;4.00;66.10;100573.16;5113017;28;19907;-43
2023/01/07 05:34:53;;;;;;;;;;;;;;;3.92;65.96;100572.06;5110295;28;19977;-42
2023/01/07 05:37:18;;;;;;;;;;;;;;;3.53;66.92;100572.06;5092288;28;19912;-42
2023/01/07 05:39:43;;;;;;;;;;;;;;;3.22;69.29;100573.97;5092187;28;19912;-42
2023/01/07 05:42:08;;;;;;;;;;;;;;;3.65;68.05;100574.56;5092105;28;19939;-42
2023/01/07 05:44:34;;;;;;;;;;;;;;;3.72;67.27;100573.88;5091439;28;19965;-43
2023/01/07 05:46:59;;;;;;;;;;;;;;;3.61;67.56;100573.19;5092244;28;19915;-43
2023/01/07 05:49:24;;;;;;;;;;;;;;;3.60;67.53;100566.25;5092280;28;19912;-43
2023/01/07 05:51:49;;;;;;;;;;;;;;;3.78;67.17;100574.28;5091719;28;20329;-44
2023/01/07 05:54:15;;;;;;;;;;;;;;;4.00;66.50;100576.66;5091234;28;19912;-43
2023/01/07 05:56:40;;;;;;;;;;;;;;;3.97;66.39;100576.09;5091209;28;19912;-43
2023/01/07 05:59:05;;;;;;;;;;;;;;;3.80;66.87;100573.19;5091392;28;19919;-42
2023/01/07 06:01:31;;;;;;;;;;;;;;;3.75;68.00;100575.41;5091703;28;20090;-44
2023/01/07 06:03:56;;;;;;;;;;;;;;;4.19;66.06;100581.06;5091381;28;20292;-43
2023/01/07 06:06:21;;;;;;;;;;;;;;;3.87;66.64;100576.91;5091390;28;20010;-43
2023/01/07 06:08:47;;;;;;;;;;;;;;;3.85;66.85;100578.03;5089713;28;19913;-37
2023/01/07 06:11:12;;;;;;;;;;;;;;;4.08;65.56;100581.22;5086895;28;20425;-42
2023/01/07 06:13:37;;;;;;;;;;;;;;;3.64;67.12;100579.00;5091451;28;20006;-37
2023/01/07 06:16:04;;;;;;;;;;;;;;;4.00;66.37;100579.28;5090853;28;19946;-36
2023/01/07 06:18:29;;;;;;;;;;;;;;;3.90;66.25;100581.91;5090940;28;19920;-36
2023/01/07 06:20:55;;;;;;;;;;;;;;;3.85;66.17;100588.56;5091372;28;19965;-42
2023/01/07 06:23:20;;;;;;;;;;;;;;;4.17;65.65;100590.91;5090839;28;20020;-43
2023/01/07 06:25:45;;;;;;;;;;;;;;;4.37;64.95;100585.59;5090768;28;19912;-42
2023/01/07 06:28:11;;;;;;;;;;;;;;;4.29;64.82;100586.31;5090309;28;20288;-42
2023/01/07 06:30:36;;;;;;;;;;;;;;;4.40;65.05;100591.41;5090794;28;20023;-42
2023/01/07 06:33:01;;;;;;;;;;;;;;;4.84;63.66;100594.31;5091356;28;19916;-42
2023/01/07 06:35:26;;;;;;;;;;;;;;;5.38;62.24;100596.25;5090350;28;19916;-42
2023/01/07 06:37:52;;;;;;;;;;;;;;;5.42;64.77;100594.97;5090258;28;20042;-42
2023/01/07 06:40:17;;;;;;;;;;;;;;;5.15;63.11;100599.28;5090210;28;20394;-43
2023/01/07 06:42:42;;;;;;;;;;;;;;;5.63;61.92;100605.25;5090343;28;19930;-43
2023/01/07 06:45:08;;;;;;;;;;;;;;;7.56;82.78;100611.22;5089933;28;19912;-43
2023/01/07 06:47:33;;;;;;;;;;;;;;;7.24;58.99;100596.91;5090351;28;19912;-43
2023/01/07 06:49:59;;;;;;;;;;;;;;;6.96;58.59;100600.75;5089968;28;20034;-43
2023/01/07 06:52:24;;;;;;;;;;;;;;;7.03;57.23;100602.59;5090170;28;20076;-43
2023/01/07 06:54:49;;;;;;;;;;;;;;;6.90;57.60;100604.03;5090206;28;20014;-43
2023/01/07 06:57:14;;;;;;;;;;;;;;;7.36;56.62;100607.19;5090048;28;19996;-43
2023/01/07 06:59:40;;;;;;;;;;;;;;;7.43;56.31;100608.22;5090010;28;20006;-43
2023/01/07 07:02:05;;;;;;;;;;;;;;;7.65;55.46;100598.78;5090114;28;19994;-43
2023/01/07 07:04:31;;;;;;;;;;;;;;;7.79;54.44;100600.81;5090007;28;20338;-43
2023/01/07 07:06:56;;;;;;;;;;;;;;;7.90;54.32;100586.41;5090183;28;19912;-42
2023/01/07 07:09:21;;;;;;;;;;;;;;;8.22;53.46;100601.50;5089712;28;20373;-42
2023/01/07 07:11:46;;;;;;;;;;;;;;;8.21;53.29;100602.47;5091410;28;19912;-42
2023/01/07 07:14:12;;;;;;;;;;;;;;;8.60;52.49;100606.25;5093886;28;19916;-42
2023/01/07 07:16:37;;;;;;;;;;;;;;;9.42;51.84;100602.44;5093898;28;19955;-42
2023/01/07 07:19:02;;;;;;;;;;;;;;;8.84;51.37;100613.31;5094039;28;19925;-42
2023/01/07 07:21:28;;;;;;;;;;;;;;;8.35;52.62;100600.13;5106281;28;19966;-42
2023/01/07 07:23:53;;;;;;;;;;;;;;;8.65;52.04;100611.06;5093085;28;19916;-44
2023/01/07 07:26:18;;;;;;;;;;;;;;;8.54;52.22;100614.88;5094085;28;20383;-43
2023/01/07 07:28:44;;;;;;;;;;;;;;;8.74;52.16;100610.88;5094013;28;19912;-43
2023/01/07 07:31:09;;;;;;;;;;;;;;;9.07;51.10;100612.59;5093697;28;19912;-43
2023/01/07 07:33:34;;;;;;;;;;;;;;;9.93;51.90;100614.22;5093387;28;19916;-42
2023/01/07 07:36:00;;;;;;;;;;;;;;;10.10;48.30;100614.91;5093379;28;19972;-42
2023/01/07 07:38:25;;;;;;;;;;;;;;;10.11;48.73;100613.94;5093738;28;20241;-43
2023/01/07 07:40:50;;;;;;;;;;;;;;;9.87;48.97;100611.47;5093797;28;19912;-43
2023/01/07 07:43:15;;;;;;;;;;;;;;;9.69;49.74;100619.72;5092620;28;20340;-43
2023/01/07 07:45:41;;;;;;;;;;;;;;;9.94;49.11;100612.41;5092546;28;19912;-43
2023/01/07 07:48:11;;;;;;;;;;;;;;;10.18;48.39;100612.22;5092987;28;20056;-44
2023/01/07 07:50:36;;;;;;;;;;;;;;;10.63;47.28;100620.28;5093278;28;19912;-42
2023/01/07 07:53:02;;;;;;;;;;;;;;;10.31;46.53;100624.09;5092753;28;20039;-43
2023/01/07 07:55:27;;;;;;;;;;;;;;;10.37;46.89;100620.69;5092579;28;20006;-42
2023/01/07 07:57:53;;;;;;;;;;;;;;;9.82;48.25;100606.66;5092819;28;19969;-42
2023/01/07 08:00:18;;;;;;;;;;;;;;;10.13;47.84;100619.91;5093193;28;19994;-43
2023/01/07 08:02:43;;;;;;;;;;;;;;;10.32;47.88;100623.09;5092950;28;19916;-43
2023/01/07 08:05:10;;;;;;;;;;;;;;;10.76;46.34;100617.00;5090962;28;19912;-43
2023/01/07 08:07:35;;;;;;;;;;;;;;;10.89;46.38;100614.53;5091987;28;19912;-43
2023/01/07 08:10:01;;;;;;;;;;;;;;;10.88;47.59;100617.38;5092705;28;19936;-43
2023/01/07 08:12:26;;;;;;;;;;;;;;;11.09;46.00;100622.75;5092941;28;19939;-44
2023/01/07 08:14:51;;;;;;;;;;;;;;;11.26;45.55;100606.56;5092995;28;19934;-43
2023/01/07 08:17:16;;;;;;;;;;;;;;;11.45;45.55;100608.63;5092863;28;19912;-42
2023/01/07 08:19:42;;;;;;;;;;;;;;;11.37;45.06;100611.44;5094635;28;19920;-43
2023/01/07 08:22:07;;;;;;;;;;;;;;;11.19;45.42;100608.34;5112890;28;19918;-43
2023/01/07 08:24:32;;;;;;;;;;;;;;;11.32;44.97;100605.81;5112396;28;19939;-43
2023/01/07 08:26:58;;;;;;;;;;;;;;;11.48;45.13;100604.75;5113070;28;19916;-44
2023/01/07 08:29:23;;;;;;;;;;;;;;;11.73;44.98;100600.75;5112976;28;19911;-44
2023/01/07 08:31:48;;;;;;;;;;;;;;;12.28;42.45;100600.19;5112696;28;19934;-42
2023/01/07 08:34:14;;;;;;;;;;;;;;;12.13;43.06;100581.63;5112654;28;19945;-43
2023/01/07 08:36:39;;;;;;;;;;;;;;;12.11;42.83;100591.69;5112857;28;19961;-43
2023/01/07 08:39:04;;;;;;;;;;;;;;;12.24;42.37;100596.28;5113309;28;19925;-43
2023/01/07 08:41:30;;;;;;;;;;;;;;;12.30;42.33;100590.19;5112689;28;19927;-44
2023/01/07 08:43:55;;;;;;;;;;;;;;;12.58;41.92;100592.81;5112651;28;19916;-43
2023/01/07 08:46:20;;;;;;;;;;;;;;;12.65;41.34;100593.69;5112895;28;19935;-37
2023/01/07 08:48:46;;;;;;;;;;;;;;;12.96;41.37;100589.75;5095394;28;19912;-37
2023/01/07 08:51:11;;;;;;;;;;;;;;;13.20;40.28;100587.59;5092540;28;20030;-43
2023/01/07 08:53:36;;;;;;;;;;;;;;;13.30;40.11;100583.53;5092127;28;19916;-43
2023/01/07 08:56:01;;;;;;;;;;;;;;;13.63;39.88;100584.63;5091811;28;19927;-44
2023/01/07 08:58:27;;;;;;;;;;;;;;;13.45;39.71;100574.53;5091829;28;20007;-37
2023/01/07 09:00:52;;;;;;;;;;;;;;;13.21;40.46;100571.38;5092020;28;19974;-38
2023/01/07 09:03:17;;;;;;;;;;;;;;;13.23;40.18;100569.31;5091955;28;20270;-44
2023/01/07 09:05:45;;;;;;;;;;;;;;;13.24;40.18;100565.59;5091912;28;20378;-43
2023/01/07 09:08:10;;;;;;;;;;;;;;;13.60;39.48;100574.38;5092562;28;20509;-44
2023/01/07 09:10:35;;;;;;;;;;;;;;;13.49;39.82;100565.88;5087968;28;19974;-43
2023/01/07 09:13:01;;;;;;;;;;;;;;;13.62;39.89;100550.91;5092043;28;19945;-42
2023/01/07 09:15:26;;;;;;;;;;;;;;;13.79;39.84;100548.66;5091684;28;19970;-42
2023/01/07 09:17:51;;;;;;;;;;;;;;;13.58;40.28;100547.81;5091725;28;19924;-43
2023/01/07 09:20:17;;;;;;;;;;;;;;;13.83;39.90;100541.88;5098279;28;19916;-43
2023/01/07 09:22:42;;;;;;;;;;;;;;;13.49;40.50;100535.66;5111829;28;19920;-43
2023/01/07 09:25:08;;;;;;;;;;;;;;;13.72;40.38;100542.50;5111856;28;20435;-42
2023/01/07 09:27:33;;;;;;;;;;;;;;;13.61;40.38;100528.69;5111645;28;19972;-43
2023/01/07 09:30:00;;;;;;;;;;;;;;;13.67;40.66;100532.41;5111600;28;19915;-43
2023/01/07 09:32:26;;;;;;;;;;;;;;;14.12;39.46;100521.88;5111703;28;20553;-42
2023/01/07 09:34:51;;;;;;;;;;;;;;;13.68;40.58;100518.00;5111056;28;19955;-43
2023/01/07 09:37:16;;;;;;;;;;;;;;;13.55;41.00;100510.78;5112417;28;19923;-43
2023/01/07 09:39:42;;;;;;;;;;;;;;;13.74;40.95;100506.47;5111572;28;20402;-41
2023/01/07 09:42:24;;;;;;;;;;;;;;;13.54;41.11;100498.44;5111966;28;20002;-43
2023/01/07 09:44:49;;;;;;;;;;;;;;;13.54;41.11;100500.31;5111542;28;19915;-43
2023/01/07 09:47:17;;;;;;;;;;;;;;;13.52;41.68;100497.00;5111790;28;19912;-44
2023/01/07 09:49:43;;;;;;;;;;;;;;;13.51;41.94;100490.81;5111277;28;20066;-44
2023/01/07 09:52:12;;;;;;;;;;;;;;;14.00;41.26;100484.25;5101129;28;19913;-43
2023/01/07 09:54:38;;;;;;;;;;;;;;;13.57;42.07;100478.50;5070767;28;20391;-43
2023/01/07 09:57:04;;;;;;;;;;;;;;;13.86;42.11;100475.41;5070869;28;19913;-43
2023/01/07 09:59:29;;;;;;;;;;;;;;;14.01;41.09;100472.50;5070138;28;20501;-43
2023/01/07 10:01:58;;;;;;;;;;;;;;;14.08;41.26;100469.81;5070436;28;20346;-44
2023/01/07 10:04:23;;;;;;;;;;;;;;;13.86;41.30;100463.91;5070162;28;19920;-43
2023/01/07 10:06:57;;;;;;;;;;;;;;;14.10;41.32;100457.03;5070768;28;19913;-43
2023/01/07 10:09:22;;;;;;;;;;;;;;;14.49;40.59;100460.66;5070447;28;20007;-43
2023/01/07 10:11:59;;;;;;;;;;;;;;;14.47;41.10;100443.97;5085640;28;19995;-43
2023/01/07 10:14:43;;;;;;;;;;;;;;;14.54;40.63;100435.91;5089580;28;20287;-42
2023/01/07 10:17:14;;;;;;;;;;;;;;;14.42;41.06;100435.75;5088434;28;20411;-43
2023/01/07 10:20:06;;;;;;;;;;;;;;;14.70;40.85;100432.78;5091585;28;19981;-43
2023/01/07 10:22:34;;;;;;;;;;;;;;;14.76;40.21;100425.75;5101194;28;20349;-45
2023/01/07 10:25:02;;;;;;;;;;;;;;;15.13;45.41;100426.75;5110575;28;20021;-43
2023/01/07 10:27:34;;;;;;;;;;;;;;;15.13;40.17;100425.94;5111386;28;19922;-43
2023/01/07 10:30:11;;;;;;;;;;;;;;;14.99;40.59;100422.53;5111376;28;20272;-42
2023/01/07 10:32:37;;;;;;;;;;;;;;;14.98;40.58;100410.97;5110804;28;19961;-44
2023/01/07 10:35:03;;;;;;;;;;;;;;;14.68;40.70;100420.63;5110909;28;19919;-43
2023/01/07 10:37:30;;;;;;;;;;;;;;;14.71;40.88;100412.16;5110835;28;19912;-44
2023/01/07 10:40:02;;;;;;;;;;;;;;;14.92;41.11;100413.69;5110981;28;19912;-44
2023/01/07 10:42:34;;;;;;;;;;;;;;;14.89;40.50;100403.38;5110663;28;20014;-44
2023/01/07 10:45:19;;;;;;;;;;;;;;;15.29;41.04;100405.78;5110991;28;19919;-42
2023/01/07 10:48:14;;;;;;;;;;;;;;;15.08;41.27;100396.25;5115031;28;19951;-37
2023/01/07 10:50:52;;;;;;;;;;;;;;;14.78;40.82;100388.84;5104485;28;19969;-37
2023/01/07 10:53:35;;;;;;;;;;;;;;;14.54;41.80;100382.34;5114843;28;19969;-37
2023/01/07 10:56:02;;;;;;;;;;;;;;;14.78;41.24;100378.94;5114682;28;19911;-37
2023/01/07 10:58:31;;;;;;;;;;;;;;;13.96;42.58;100369.81;5115053;28;19911;-37
2023/01/07 11:00:56;;;;;;;;;;;;;;;14.66;41.49;100365.41;5115041;28;19912;-37
2023/01/07 11:03:23;;;;;;;;;;;;;;;14.91;41.74;100364.66;5114716;28;19968;-37
2023/01/07 11:05:52;;;;;;;;;;;;;;;14.96;40.62;100358.63;5114823;28;20379;-41
2023/01/07 11:08:27;;;;;;;;;;;;;;;15.01;40.74;100351.56;5115203;28;19912;-37
2023/01/07 11:10:52;;;;;;;;;;;;;;;15.10;40.74;100345.94;5105828;28;19919;-37
2023/01/07 11:13:21;;;;;;;;;;;;;;;14.98;41.21;100348.50;5094730;28;20334;-38
2023/01/07 11:15:51;;;;;;;;;;;;;;;14.47;43.36;100340.34;5094054;28;19969;-37
2023/01/07 11:18:29;;;;;;;;;;;;;;;14.95;41.26;100346.28;5094437;28;20272;-37
2023/01/07 11:20:56;;;;;;;;;;;;;;;14.86;42.50;100337.66;5105919;28;19916;-37
2023/01/07 11:23:40;;;;;;;;;;;;;;;14.92;41.24;100333.31;5114536;28;20108;-37
2023/01/07 11:26:08;;;;;;;;;;;;;;;15.16;42.33;100329.00;5114126;28;19976;-37
2023/01/07 11:28:34;;;;;;;;;;;;;;;14.85;41.52;100320.78;5114638;28;20013;-38
2023/01/07 11:31:00;;;;;;;;;;;;;;;15.15;41.25;100328.16;5114630;28;19924;-38
2023/01/07 11:33:31;;;;;;;;;;;;;;;14.88;41.77;100319.50;5114160;28;19912;-38
2023/01/07 11:35:56;;;;;;;;;;;;;;;14.94;41.39;100309.78;5113812;28;19923;-38
2023/01/07 11:38:29;;;;;;;;;;;;;;;15.23;40.75;100309.13;5114300;28;19912;-38
2023/01/07 11:40:57;;;;;;;;;;;;;;;15.33;40.96;100308.63;5113695;28;20318;-38
2023/01/07 11:43:22;;;;;;;;;;;;;;;14.96;41.45;100308.50;5113977;28;20064;-35
2023/01/07 11:45:50;;;;;;;;;;;;;;;15.44;39.58;100307.09;5113688;28;19953;-36
2023/01/07 11:48:24;;;;;;;;;;;;;;;15.23;40.66;100303.78;5113927;28;19938;-37
2023/01/07 11:50:52;;;;;;;;;;;;;;;15.25;39.70;100303.56;5113941;28;20363;-37
2023/01/07 11:53:18;;;;;;;;;;;;;;;15.96;39.05;100301.38;5113645;28;19912;-36
2023/01/07 11:56:02;;;;;;;;;;;;;;;16.25;38.06;100296.25;5113623;28;19911;-38
2023/01/07 11:58:38;;;;;;;;;;;;;;;15.83;38.72;100305.84;5113103;28;19912;-39
2023/01/07 12:01:14;;;;;;;;;;;;;;;16.08;38.63;100293.38;5112324;28;19957;-37
2023/01/07 12:04:03;;;;;;;;;;;;;;;16.01;38.48;100290.75;5113564;28;20391;-37
2023/01/07 12:06:30;;;;;;;;;;;;;;;15.81;38.02;100277.59;5110216;28;20283;-38
2023/01/07 12:09:01;;;;;;;;;;;;;;;16.02;38.21;100276.31;5113192;28;20426;-37
2023/01/07 12:11:37;;;;;;;;;;;;;;;15.55;38.71;100267.97;5099496;28;19927;-38
2023/01/07 12:14:26;;;;;;;;;;;;;;;15.35;38.89;100271.69;5091383;28;20384;-37
2023/01/07 12:16:52;;;;;;;;;;;;;;;15.60;38.54;100268.94;5090035;28;19924;-37
2023/01/07 12:19:34;;;;;;;;;;;;;;;15.55;38.85;100263.41;5092785;28;19990;-38
2023/01/07 12:22:13;;;;;;;;;;;;;;;15.07;40.10;100263.28;5073034;28;19984;-38
2023/01/07 12:24:44;;;;;;;;;;;;;;;15.27;39.30;100265.78;5071986;28;19931;-38
2023/01/07 12:27:28;;;;;;;;;;;;;;;15.36;39.65;100259.09;5072172;28;20033;-37
2023/01/07 12:30:19;;;;;;;;;;;;;;;15.51;39.17;100256.84;5072259;28;19950;-36
2023/01/07 12:33:03;;;;;;;;;;;;;;;15.65;38.75;100257.53;5062412;28;19912;-37
2023/01/07 12:35:40;;;;;;;;;;;;;;;15.47;38.99;100252.16;5089239;28;20380;-37
2023/01/07 12:38:24;;;;;;;;;;;;;;;14.72;40.12;100259.25;5091974;28;20065;-36
2023/01/07 12:40:52;;;;;;;;;;;;;;;15.01;39.85;100249.72;5090043;28;19912;-37
2023/01/07 12:43:21;;;;;;;;;;;;;;;14.70;39.94;100247.09;5090270;28;19916;-37
2023/01/07 12:45:48;;;;;;;;;;;;;;;15.13;39.24;100244.47;5091850;28;20416;-37
2023/01/07 12:48:21;;;;;;;;;;;;;;;14.92;40.19;100244.88;5089467;28;20049;-37
2023/01/07 12:50:50;;;;;;;;;;;;;;;14.71;40.42;100244.22;5089432;28;19920;-38